Airfield :
LOGIN :

Register | Disclaimer

   EN    FR    IT 

 










Legend :    VFR   Marginal VFR   IFR   Intensive IFR   Very Intensive IFR
Visi :
Ceiling :
>= 8 km
>= 3000ft
5 to 8 km
1000 to 3000 ft
1500m to 5 km
500 to 1000 ft
800 to 1500m
200 to 500 ft
< 800m
< 200 ft
Symbols :   Thunderstorms  Fog  Heavy snow  Heavy precipitations  Wind > 20 kt
SIGMETs :     Misc.  Thunderstorms  Icing  Turbulence  Mountain Waves  Volcanic Ashes







- Airport Elevation : 24 ft
- IATA code : IBZ


LEIB - Ibiza

CURRENT METAR :
  • 270500Z 36003KT CAVOK 14/13 Q1013 NOSIG

EXPIRED METARs :
  • 270430Z VRB01KT CAVOK 15/13 Q1013 NOSIG
  • 270400Z VRB02KT CAVOK 16/14 Q1013 NOSIG
  • 270330Z 28003KT CAVOK 16/15 Q1013 NOSIG
  • 270300Z VRB02KT CAVOK 16/15 Q1013 NOSIG
  • 270230Z 27004KT 230V340 CAVOK 17/15 Q1013 NOSIG
  • 270200Z 27005KT CAVOK 17/15 Q1013 NOSIG

TAF TAF LEIB
Valid from the 27 at 03:00 until the 28 at 03:00 UTC


270200Z 2703/2803 28006KT CAVOK TX23/2712Z TN14/2706Z
BECMG 2710/2712 18010KT
BECMG 2722/2724 01004KT
No reported NOTAMs for that airfield.



MET'MAP, your aeronautical weather chart ! - Copyright ORBIFLY December 2007 - Disclaimer

ORBIFLY MET'MAP TEAM :

Programming & Development : Alexandra Zaïnal
Concept & Development : Baudouin d'Aumeries
Co-Development & Prog : Marc-Olivier Méhu
Technical & hardware support : Manuel Goepfert

Contact : metmap@orbifly.com




SOURCES & CREDITS :

   NOAA